x

Northern Hawaii One - 245nm Ne Of Honolulu Hi (51000) Wave Buoy

6:50pm - Fri 17th Apr 2015 All times are HST. -10 hours from GMT.

  • Sig Wave height 6.6ft
  • Peak Period 11s
  • Average Period 7s
  • Wind
    9mph, 13mph gusts
  • Sea Temp 69°f
  • Air Temp 69°f
  • Sea Pressure 1024.5mb
  • Northern Hawaii One - 245nm Ne Of Honolulu Hi
  • Northern Hawaii One - 245nm Ne Of Honolulu Hi

More Historic Weather Station data

Upgrade to MSW Pro to gain access to the past 30 days of data for over 8000 Wavebouys and Weather Stations around the globe.

Join Pro

Comparision Forecast

View Surf forecast
   
Fri 04/17 6:50pm 6.5ft 11s 7s 9 13 mph 1024.5mb 69f 69f
5:50pm 6.5ft 10s 7s 9 11 mph 1023.9mb 69f 69f
4:50pm 6.5ft 11s 7s 9 11 mph 1023.8mb 69f 69f
3:50pm 7ft 9s 7s 7 9 mph 1023.5mb 69f 69f
2:50pm 7ft 11s 8s 7 9 mph 1023.7mb 69f 69f
1:50pm 7.5ft 11s 8s 7 9 mph 1023.9mb 69f 69f
12:50pm 7.5ft 9s 7s 9 11 mph 1024mb 68f 69f
11:50am 7ft 11s 7s 9 11 mph 1024.6mb 68f 69f
10:50am 7.5ft 12s 8s 7 9 mph 1024.9mb 68f 69f
9:50am 7.5ft 12s 8s 7 11 mph 1024.6mb 67f 69f
8:50am 7.5ft 11s 8s 9 11 mph 1024.2mb 67f 69f
7:50am 8ft 11s 8s 9 11 mph 1023.6mb 67f 68f
6:50am 8.5ft 12s 8s 11 16 mph 1023.3mb 67f 66f
5:50am  -   -   -  9 13 mph 1022.8mb 67f 66f
4:50am 8ft 12s 8s 4 9 mph 1022.6mb 67f 65f
3:50am 8ft 11s 8s 4 7 mph 1022.6mb 67f 66f
2:50am 7.5ft 12s 8s 13 18 mph 1022.6mb 67f 66f
1:50am 7ft 13s 7s 13 18 mph 1023.1mb 67f 66f
12:50am  -   -   -  13 18 mph 1023.3mb 67f 65f
Thu 04/16 11:50pm 8ft 13s 8s 11 18 mph 1023.7mb 67f 67f
10:50pm 7ft 13s 8s 9 13 mph 1023.9mb 68f 67f
9:50pm  -   -   -  9 13 mph 1024.1mb 68f 67f
8:50pm  -   -   -  9 11 mph 1023.8mb 68f 67f
7:50pm  -   -   -  9 11 mph 1023.4mb 68f 68f
6:50pm  -   -   -  9 11 mph 1023mb 68f 68f
5:50pm  -   -   -  7 9 mph 1022.2mb 69f 68f
4:50pm 8.5ft 14s 9s 9 13 mph 1022mb 69f 68f
3:50pm 8.5ft 14s 9s 7 9 mph 1021.8mb 68f 68f
2:50pm 7.5ft 13s 9s 7 9 mph 1022.1mb 68f 68f
1:50pm 8.5ft 14s 10s 7 11 mph 1022.5mb 68f 68f
12:50pm 8ft 14s 9s 9 11 mph 1022.9mb 68f 67f
11:50am 9.5ft 14s 10s 9 11 mph 1023.4mb 67f 67f
10:50am 9ft 15s 10s 9 11 mph 1023.9mb 67f 67f
9:50am 8ft 12s 9s 9 11 mph 1024.1mb 67f 67f
8:50am 9ft 15s 10s 9 11 mph 1024mb 67f 66f
7:50am 9ft 14s 10s 9 11 mph 1023.6mb 67f 67f
6:50am 9ft 15s 10s 9 11 mph 1023.3mb 67f 67f
5:50am  -   -   -  11 13 mph 1022.6mb 67f 66f
4:50am 10.5ft 15s 10s 9 11 mph 1022.7mb 67f 66f
3:50am 8.5ft 15s 9s 9 11 mph 1022.5mb 67f 66f
1:50am 9.5ft 15s 10s 9 11 mph 1022.6mb 67f 66f
12:50am 12ft 15s 11s 11 13 mph 1023.2mb 67f 66f
Wed 04/15 11:50pm 10ft 15s 10s 11 13 mph 1023.9mb 67f 66f
10:50pm  -   -   -  13
mph
1024.5mb 67f 65f
8:50pm 9.5ft 16s 11s 11 13 mph 1024.7mb 67f 67f
7:50pm  -   -   -  9 13 mph 1024mb 68f 67f
6:50pm 9ft 16s 10s 11 13 mph 1023.6mb 68f 67f
5:50pm  -   -   -  11 13 mph 1023mb 68f 67f
4:50pm 9ft 16s 10s 7 11 mph 1023mb 68f 68f
3:50pm  -   -   -  7
mph
1023mb 67f 67f
2:50pm  -   -   -  9 11 mph 1023.3mb 67f 67f
1:50pm  -   -   -  9 11 mph 1023.9mb 67f 66f
12:50pm 11ft 17s 11s 9 11 mph 1024.4mb 67f 67f
11:50am  -   -   -  11 13 mph 1025mb 67f 66f
10:50am  -   -   -  13 16 mph 1025.5mb 66f 66f
9:50am 7ft 19s 8s  -  4 mph 1025.9mb 66f 64f
8:50am 8.5ft 19s 9s 13 16 mph 1025.6mb 66f 65f
7:50am 7ft 19s 8s  -  mph 1025.5mb 66f 66f
6:50am 8ft 19s 9s  -  4 mph 1025.3mb 66f 66f
5:50am 7.5ft 19s 8s 4 7 mph 1024.5mb 66f 66f
4:50am 7ft 19s 8s 7 9 mph 1024mb 66f 66f
3:50am  -   -   -  7 9 mph 1024mb 66f 66f
2:50am 6ft 21s 7s 9 11 mph 1024.3mb 66f 67f
1:50am  -   -   -  7 9 mph 1025.1mb 66f 67f
12:50am  -   -   -  7 9 mph 1025.5mb 66f 67f
Tue 04/14 11:50pm 6ft 12s 6s 7 9 mph 1026.1mb 66f 67f
10:50pm  -   -   -  9 11 mph 1026.4mb 67f 67f
9:50pm  -   -   -  13 16 mph 1026.9mb 67f 67f
8:50pm  -   -   -  13 16 mph 1026.8mb 67f 67f
7:50pm  -   -   -  16 18 mph 1025.9mb 67f 67f
6:50pm 6ft 11s 7s 13 16 mph 1025.5mb 67f 67f
5:50pm  -   -   -  13 16 mph 1025.3mb 67f 67f
4:50pm  -   -   -  11 13 mph 1025.2mb 67f 67f
3:50pm  -   -   -  11 13 mph 1025.3mb 67f 67f
2:50pm  -   -   -  9 11 mph 1025.8mb 67f 67f
1:50pm  -   -   -  9 11 mph 1026.4mb 67f 67f
12:50pm  -   -   -  9
mph
1027mb 67f 67f
11:50am 6ft 7s 6s 9 11 mph 1027.4mb 67f 67f
10:50am  -   -   -  9
mph
1027.9mb 66f 67f
9:50am 6ft 8s 7s 11 13 mph 1028mb 66f 67f
8:50am  -   -   -  11 13 mph 1027.5mb 66f 67f
7:50am  -   -   -  11 13 mph 1027.2mb 65f 67f
6:50am  -   -   -  11 16 mph 1026.8mb 65f 67f
5:50am  -   -   -  11 16 mph 1026.4mb 65f 66f